createdAt,value
2022-09-07T00:02:37.843Z,387
2022-09-07T00:10:02.555Z,382
2022-09-07T00:16:06.589Z,376
2022-09-07T00:22:23.827Z,382
2022-09-07T00:34:45.113Z,383
2022-09-07T00:40:49.147Z,379
2022-09-07T00:52:02.942Z,381
2022-09-07T01:05:31.750Z,381
2022-09-07T01:14:17.261Z,380
2022-09-07T01:21:58.417Z,382
2022-09-07T01:30:30.709Z,387
2022-09-07T01:41:44.483Z,387
2022-09-07T01:55:13.321Z,383
2022-09-07T02:36:06.167Z,396
2022-09-07T02:50:55.697Z,396
2022-09-07T02:58:20.483Z,398
2022-09-07T03:09:21.040Z,397
2022-09-07T03:28:15.992Z,394
2022-09-07T04:05:19.855Z,395
2022-09-07T04:20:09.379Z,393
2022-09-07T04:27:34.178Z,393
2022-09-07T04:42:23.717Z,389
2022-09-07T04:48:27.774Z,382
2022-09-07T05:13:10.342Z,380
2022-09-07T05:39:13.665Z,387
2022-09-07T05:54:03.208Z,392
2022-09-07T06:01:27.978Z,395
2022-09-07T06:08:52.762Z,399
2022-09-07T06:16:17.634Z,399
2022-09-07T06:23:42.314Z,394
2022-09-07T06:31:07.093Z,394
2022-09-07T06:38:32.104Z,391
2022-09-07T06:45:56.776Z,392
2022-09-07T06:52:00.697Z,394
2022-09-07T07:00:46.328Z,394
2022-09-07T07:15:35.755Z,403
2022-09-07T07:23:00.528Z,404
2022-09-07T07:30:25.308Z,404
2022-09-07T07:37:50.206Z,406
2022-09-07T07:57:36.255Z,422
2022-09-07T08:05:00.947Z,426
2022-09-07T08:12:29.699Z,435
2022-09-07T08:19:50.542Z,438
2022-09-07T08:27:15.266Z,451
2022-09-07T08:34:40.057Z,455
2022-09-07T08:44:33.195Z,450
2022-09-07T08:51:57.858Z,444
2022-09-07T08:58:32.602Z,443
2022-09-07T09:04:22.855Z,441
2022-09-07T09:11:46.587Z,448
2022-09-07T09:21:39.646Z,423
2022-09-07T09:29:04.439Z,445
2022-09-07T09:36:29.233Z,458
2022-09-07T09:43:54.044Z,453
2022-09-07T10:06:08.331Z,439
2022-09-07T10:12:25.569Z,427
2022-09-07T10:20:57.863Z,426
2022-09-07T10:28:22.859Z,414
2022-09-07T10:35:47.858Z,447
2022-09-07T10:43:27.594Z,440
2022-09-07T10:50:37.042Z,417
2022-09-07T10:58:01.829Z,401
2022-09-07T11:05:31.048Z,382
2022-09-07T11:12:51.498Z,367
2022-09-07T11:20:16.250Z,370
2022-09-07T11:27:41.036Z,370
2022-09-07T11:35:05.839Z,392
2022-09-07T11:42:46.028Z,406
2022-09-07T11:49:59.120Z,430
2022-09-07T11:57:20.168Z,422
2022-09-07T12:04:44.986Z,415
2022-09-07T12:12:09.720Z,410
2022-09-07T12:22:02.748Z,412
2022-09-07T12:29:27.509Z,401
2022-09-07T12:36:52.282Z,391
2022-09-07T12:44:17.101Z,393
2022-09-07T12:56:38.394Z,402
2022-09-07T13:05:23.692Z,391
2022-09-07T13:11:27.959Z,382
2022-09-07T13:18:52.722Z,377
2022-09-07T13:26:17.523Z,386
2022-09-07T13:33:42.284Z,385
2022-09-07T13:41:07.064Z,389
2022-09-07T13:48:31.909Z,392
2022-09-07T13:54:48.829Z,399
2022-09-07T14:03:21.379Z,404
2022-09-07T14:10:46.186Z,399
2022-09-07T14:18:10.949Z,404
2022-09-07T14:26:16.122Z,402
2022-09-07T14:33:00.816Z,405
2022-09-07T14:40:25.279Z,409
2022-09-07T14:47:51.976Z,420
2022-09-07T14:55:14.891Z,419
2022-09-07T15:02:39.705Z,415
2022-09-07T15:08:56.603Z,415
2022-09-07T15:17:44.995Z,423
2022-09-07T15:24:55.166Z,419
2022-09-07T15:32:18.804Z,420
2022-09-07T15:39:43.774Z,426
2022-09-07T15:54:35.035Z,423
2022-09-07T16:01:58.630Z,422
2022-09-07T16:09:22.629Z,425
2022-09-07T16:23:19.499Z,426
2022-09-07T16:29:08.867Z,427
2022-09-07T16:34:21.609Z,424
2022-09-07T16:41:46.409Z,430
2022-09-07T16:47:50.404Z,435
2022-09-07T16:54:07.669Z,437
2022-09-07T17:01:32.549Z,436
2022-09-07T17:08:57.390Z,436
2022-09-07T17:14:10.124Z,439
2022-09-07T17:21:34.921Z,436
2022-09-07T17:29:00.533Z,438
2022-09-07T17:36:24.446Z,438
2022-09-07T17:43:49.251Z,436
2022-09-07T17:51:14.002Z,438
2022-09-07T18:01:23.513Z,439
2022-09-07T18:08:48.199Z,436
2022-09-07T18:16:13.008Z,438
2022-09-07T18:23:54.145Z,436
2022-09-07T18:31:18.919Z,438
2022-09-07T18:38:43.655Z,438
2022-09-07T18:46:08.598Z,437
2022-09-07T18:58:29.728Z,445
2022-09-07T19:05:54.546Z,440
2022-09-07T19:13:19.317Z,441
2022-09-07T19:20:44.076Z,445
2022-09-07T19:30:37.146Z,443
2022-09-07T19:38:01.876Z,444
2022-09-07T19:45:26.670Z,435
2022-09-07T19:52:51.468Z,431
2022-09-07T20:00:16.208Z,435
2022-09-07T20:06:20.275Z,432
2022-09-07T20:15:05.792Z,435
2022-09-07T20:22:30.542Z,435
2022-09-07T20:29:55.323Z,432
2022-09-07T20:37:20.146Z,436
2022-09-07T20:44:44.857Z,434
2022-09-07T20:52:09.645Z,429
2022-09-07T20:59:34.435Z,432
2022-09-07T21:06:59.197Z,428
2022-09-07T21:14:23.966Z,423
2022-09-07T21:20:28.017Z,430
2022-09-07T21:26:45.265Z,434
2022-09-07T21:34:10.058Z,426
2022-09-07T21:41:34.870Z,429
2022-09-07T21:48:59.585Z,431
2022-09-07T21:56:24.402Z,431
2022-09-07T22:03:49.168Z,430
2022-09-07T22:09:53.185Z,428
2022-09-07T22:16:10.535Z,424
2022-09-07T22:23:35.373Z,434
2022-09-07T22:31:00.065Z,430
2022-09-07T22:38:24.780Z,428
2022-09-07T22:45:49.572Z,425
2022-09-07T22:53:14.329Z,426
2022-09-07T22:59:18.357Z,427
2022-09-07T23:05:35.655Z,425
2022-09-07T23:13:00.404Z,424
2022-09-07T23:20:25.165Z,432
2022-09-07T23:27:49.974Z,425
2022-09-07T23:35:16.673Z,429
2022-09-07T23:42:39.503Z,432
2022-09-07T23:48:43.570Z,428
2022-09-07T23:55:00.796Z,427
